Current TAF

FTBE31 TXKF 291130
     TAF TXKF 291130Z 2912/3012 18018KT 9999 VCSH FEW015 SCT030 BKN050
      TEMPO 2914/2921 18020KT 4000 RA SCT012 BKN018
      PROB40 TEMPO 2915/2921 20025G35KT 2400 SHRA SCT008 BKN012
      PROB30 TEMPO 2917/2921 22035G55KT 0800 +TSRA SQ OVC005CB
      BECMG 2919/2921 24020KT -SHRA SCT012 BKN025
      BECMG 3000/3003 29018KT VCSH SCT018 BKN035
      BECMG 3009/3012 30008KT 9999 NSW SCT035

SIGMET - NOAA Aviation Weather Center

En Route Weather

En-route chart with weather overlay (click to open in new window).